Time;durP1;ratioP1;P1;durP2;ratioP2;P2;SDS_P1;SDS_P2;PMS_P1;PMS_P2;Temp;Humidity;BMP_temperature;BMP_pressure;BME280_temperature;BME280_humidity;BME280_pressure;Samples;Min_cycle;Max_cycle;Signal;HPM_P1;HPM_P2
2022/03/19 00:01:57;;;;;;;39.15;26.58;;;;;;;;;;5035806;28;20030;-77
2022/03/19 00:04:23;;;;;;;32.00;22.77;;;;;;;;;;5035706;28;20033;-77
2022/03/19 00:06:49;;;;;;;29.92;19.42;;;;;;;;;;5035743;28;20044;-76
2022/03/19 00:09:15;;;;;;;22.50;15.68;;;;;;;;;;5035400;28;20030;-76
2022/03/19 00:11:41;;;;;;;22.85;15.55;;;;;;;;;;5035715;28;20029;-77
2022/03/19 00:14:11;;;;;;;19.95;13.93;;;;;;;;;;5035230;28;20104;-76
2022/03/19 00:16:38;;;;;;;19.90;14.55;;;;;;;;;;5035720;28;20034;-76
2022/03/19 00:19:05;;;;;;;17.65;12.88;;;;;;;;;;5035135;28;20032;-77
2022/03/19 00:21:32;;;;;;;20.92;14.77;;;;;;;;;;5035438;28;20041;-76
2022/03/19 00:23:58;;;;;;;22.67;15.48;;;;;;;;;;5035356;28;20053;-77
2022/03/19 00:26:24;;;;;;;17.92;13.07;;;;;;;;;;5035150;28;20036;-77
2022/03/19 00:28:50;;;;;;;26.42;17.30;;;;;;;;;;5035508;28;20064;-77
2022/03/19 00:31:16;;;;;;;22.85;16.63;;;;;;;;;;5034941;28;20037;-77
2022/03/19 00:33:42;;;;;;;19.35;14.43;;;;;;;;;;5035361;28;20113;-77
2022/03/19 00:36:08;;;;;;;26.52;15.43;;;;;;;;;;5034851;28;20072;-77
2022/03/19 00:38:34;;;;;;;26.50;16.85;;;;;;;;;;5035249;28;20025;-77
2022/03/19 00:41:02;;;;;;;23.77;15.57;;;;;;;;;;5034939;28;20535;-77
2022/03/19 00:43:28;;;;;;;20.20;14.30;;;;;;;;;;5034943;28;20053;-77
2022/03/19 00:45:54;;;;;;;31.17;18.83;;;;;;;;;;5035098;28;20053;-77
2022/03/19 00:48:20;;;;;;;25.83;16.65;;;;;;;;;;5034979;28;20037;-77
2022/03/19 00:50:46;;;;;;;23.02;15.50;;;;;;;;;;5035046;28;20025;-77
2022/03/19 00:53:13;;;;;;;21.98;15.35;;;;;;;;;;5033606;28;20408;-77
2022/03/19 00:55:39;;;;;;;22.67;14.88;;;;;;;;;;5033491;28;20057;-77
2022/03/19 00:58:05;;;;;;;23.55;15.32;;;;;;;;;;5033564;28;20109;-77
2022/03/19 01:00:31;;;;;;;24.60;16.10;;;;;;;;;;5033040;28;20061;-77
2022/03/19 01:02:57;;;;;;;19.70;13.63;;;;;;;;;;5033482;28;20107;-78
2022/03/19 01:05:25;;;;;;;19.83;13.75;;;;;;;;;;5033379;28;20037;-77
2022/03/19 01:07:53;;;;;;;22.45;14.85;;;;;;;;;;5033612;28;20021;-77
2022/03/19 01:10:21;;;;;;;25.17;17.15;;;;;;;;;;5033193;28;20028;-77
2022/03/19 01:12:47;;;;;;;27.10;16.58;;;;;;;;;;5033497;28;20040;-77
2022/03/19 01:15:15;;;;;;;23.58;16.13;;;;;;;;;;5033277;28;20056;-77
2022/03/19 01:17:41;;;;;;;20.52;14.68;;;;;;;;;;5033560;28;20434;-77
2022/03/19 01:20:08;;;;;;;19.50;13.18;;;;;;;;;;5033146;28;20029;-77
2022/03/19 01:22:35;;;;;;;21.23;13.43;;;;;;;;;;5033126;28;20071;-77
2022/03/19 01:25:04;;;;;;;22.23;14.95;;;;;;;;;;5033429;28;20071;-77
2022/03/19 01:27:31;;;;;;;23.23;15.27;;;;;;;;;;5032981;28;20033;-76
2022/03/19 01:29:58;;;;;;;18.55;13.50;;;;;;;;;;5033176;28;20082;-77
2022/03/19 01:32:24;;;;;;;13.70;9.30;;;;;;;;;;5033024;28;20086;-77
2022/03/19 01:34:50;;;;;;;12.55;9.13;;;;;;;;;;5033240;28;20461;-77
2022/03/19 01:37:16;;;;;;;12.43;9.02;;;;;;;;;;5032806;28;20041;-77
2022/03/19 01:39:42;;;;;;;19.85;13.82;;;;;;;;;;5033006;28;20504;-77
2022/03/19 01:42:09;;;;;;;20.80;13.40;;;;;;;;;;5033112;28;20476;-77
2022/03/19 01:44:35;;;;;;;16.40;10.95;;;;;;;;;;5032708;28;20058;-77
2022/03/19 01:47:03;;;;;;;12.68;9.88;;;;;;;;;;5033186;28;20476;-77
2022/03/19 01:49:30;;;;;;;14.77;10.57;;;;;;;;;;5032577;28;20350;-77
2022/03/19 01:51:56;;;;;;;15.55;11.05;;;;;;;;;;4988122;28;1286989;-77
2022/03/19 01:54:33;;;;;;;15.40;11.10;;;;;;;;;;5033476;28;20041;-77
2022/03/19 01:57:00;;;;;;;17.70;10.70;;;;;;;;;;5033894;28;20033;-77
2022/03/19 01:59:28;;;;;;;15.68;11.27;;;;;;;;;;5033297;28;20384;-77
2022/03/19 02:01:55;;;;;;;16.20;11.40;;;;;;;;;;5033694;28;20037;-77
2022/03/19 02:04:21;;;;;;;14.90;10.98;;;;;;;;;;5033177;28;20112;-77
2022/03/19 02:06:48;;;;;;;14.85;10.60;;;;;;;;;;5033549;28;20029;-77
2022/03/19 02:09:14;;;;;;;15.80;10.40;;;;;;;;;;5033218;28;20435;-77
2022/03/19 02:11:40;;;;;;;14.85;10.52;;;;;;;;;;5032947;28;20382;-77
2022/03/19 02:14:07;;;;;;;12.93;8.90;;;;;;;;;;5033439;28;20535;-77
2022/03/19 02:16:33;;;;;;;19.73;13.18;;;;;;;;;;5033160;28;20105;-77
2022/03/19 02:19:02;;;;;;;22.00;14.55;;;;;;;;;;5033394;28;20030;-77
2022/03/19 02:21:40;;;;;;;19.17;11.88;;;;;;;;;;5032944;28;20091;-77
2022/03/19 02:26:51;;;;;;;20.30;14.50;;;;;;;;;;5033059;28;20044;-77
2022/03/19 02:29:17;;;;;;;20.33;12.77;;;;;;;;;;5032969;28;20026;-77
2022/03/19 02:31:44;;;;;;;17.17;12.45;;;;;;;;;;5033155;28;20476;-77
2022/03/19 02:34:11;;;;;;;15.18;10.32;;;;;;;;;;5032750;28;20025;-77
2022/03/19 02:36:40;;;;;;;24.67;12.02;;;;;;;;;;5033158;28;20048;-77
2022/03/19 02:39:28;;;;;;;17.00;12.18;;;;;;;;;;5032740;28;20030;-77
2022/03/19 02:41:54;;;;;;;16.17;11.93;;;;;;;;;;5032573;28;20063;-77
2022/03/19 02:44:20;;;;;;;15.40;10.43;;;;;;;;;;5032802;28;20021;-77
2022/03/19 02:46:51;;;;;;;16.48;10.60;;;;;;;;;;5032625;28;20075;-77
2022/03/19 02:49:17;;;;;;;17.92;9.95;;;;;;;;;;5032713;28;20033;-77
2022/03/19 02:51:44;;;;;;;13.60;9.65;;;;;;;;;;5032366;28;20025;-78
2022/03/19 02:54:12;;;;;;;17.20;11.18;;;;;;;;;;5032702;28;20032;-77
2022/03/19 02:56:40;;;;;;;12.20;8.50;;;;;;;;;;5032330;28;20032;-77
2022/03/19 02:59:09;;;;;;;12.43;8.57;;;;;;;;;;5032847;28;20480;-77
2022/03/19 03:01:37;;;;;;;11.23;8.20;;;;;;;;;;5031001;28;20094;-77
2022/03/19 03:04:03;;;;;;;12.95;9.13;;;;;;;;;;5032766;28;20478;-77
2022/03/19 03:06:34;;;;;;;13.18;8.80;;;;;;;;;;5032332;28;20130;-77
2022/03/19 03:09:00;;;;;;;17.30;10.55;;;;;;;;;;5032593;28;20155;-77
2022/03/19 03:11:26;;;;;;;14.80;8.70;;;;;;;;;;5032244;28;20428;-78
2022/03/19 03:13:52;;;;;;;15.20;9.85;;;;;;;;;;5032504;28;20025;-77
2022/03/19 03:16:18;;;;;;;13.07;8.57;;;;;;;;;;5032349;28;20025;-77
2022/03/19 03:18:45;;;;;;;14.52;9.45;;;;;;;;;;5032039;28;20116;-77
2022/03/19 03:21:11;;;;;;;12.73;8.63;;;;;;;;;;5030823;28;20432;-77
2022/03/19 03:23:37;;;;;;;11.98;7.82;;;;;;;;;;5031809;28;20029;-77
2022/03/19 03:26:03;;;;;;;13.32;8.40;;;;;;;;;;5032214;28;20029;-77
2022/03/19 03:28:29;;;;;;;13.45;8.20;;;;;;;;;;5032279;28;20026;-77
2022/03/19 03:30:56;;;;;;;14.27;8.40;;;;;;;;;;5032098;28;20057;-77
2022/03/19 03:33:22;;;;;;;13.13;9.02;;;;;;;;;;5032166;28;20021;-77
2022/03/19 03:35:49;;;;;;;11.00;8.52;;;;;;;;;;5031858;28;20473;-77
2022/03/19 03:38:15;;;;;;;12.85;8.77;;;;;;;;;;5030838;28;20436;-77
2022/03/19 03:40:41;;;;;;;11.68;8.13;;;;;;;;;;5031685;28;20026;-78
2022/03/19 03:43:08;;;;;;;16.73;9.88;;;;;;;;;;5032050;28;20079;-77
2022/03/19 03:45:35;;;;;;;11.27;8.05;;;;;;;;;;5031739;28;20065;-77
2022/03/19 03:48:01;;;;;;;12.25;7.32;;;;;;;;;;5030667;28;20389;-77
2022/03/19 03:50:28;;;;;;;13.32;8.13;;;;;;;;;;5031944;28;20061;-77
2022/03/19 03:52:54;;;;;;;12.80;8.30;;;;;;;;;;5031501;28;20057;-77
2022/03/19 03:55:20;;;;;;;13.45;8.55;;;;;;;;;;5031917;28;20028;-77
2022/03/19 03:57:46;;;;;;;12.10;7.53;;;;;;;;;;5031847;28;20029;-77
2022/03/19 04:00:13;;;;;;;16.48;9.68;;;;;;;;;;5031880;28;20034;-77
2022/03/19 04:02:39;;;;;;;14.32;9.27;;;;;;;;;;5031762;28;20060;-77
2022/03/19 04:05:06;;;;;;;11.57;8.52;;;;;;;;;;5031706;28;20105;-77
2022/03/19 04:07:32;;;;;;;13.80;9.13;;;;;;;;;;5031796;28;20829;-77
2022/03/19 04:09:59;;;;;;;12.57;8.65;;;;;;;;;;5031650;28;20021;-77
2022/03/19 04:12:25;;;;;;;16.33;10.40;;;;;;;;;;5031741;28;20029;-77
2022/03/19 04:14:52;;;;;;;12.65;9.63;;;;;;;;;;5031641;28;20151;-77
2022/03/19 04:17:18;;;;;;;23.15;13.25;;;;;;;;;;5031820;28;20034;-77
2022/03/19 04:19:45;;;;;;;15.70;10.07;;;;;;;;;;5031571;28;20079;-77
2022/03/19 04:22:11;;;;;;;16.48;11.05;;;;;;;;;;5031886;28;20022;-77
2022/03/19 04:24:38;;;;;;;26.65;14.20;;;;;;;;;;5030432;28;20033;-77
2022/03/19 04:27:05;;;;;;;12.57;8.13;;;;;;;;;;5031352;28;20064;-77
2022/03/19 04:29:31;;;;;;;15.57;8.90;;;;;;;;;;5031652;28;20468;-77
2022/03/19 04:31:57;;;;;;;28.70;14.98;;;;;;;;;;5031502;28;20057;-77
2022/03/19 04:34:24;;;;;;;26.02;15.25;;;;;;;;;;5032977;28;20029;-77
2022/03/19 04:36:50;;;;;;;11.77;8.48;;;;;;;;;;5035148;28;20029;-77
2022/03/19 04:39:16;;;;;;;12.38;8.68;;;;;;;;;;5035068;28;20083;-77
2022/03/19 04:41:42;;;;;;;14.15;8.50;;;;;;;;;;5035075;28;20030;-77
2022/03/19 04:44:09;;;;;;;15.95;9.75;;;;;;;;;;5034993;28;20030;-77
2022/03/19 04:46:36;;;;;;;14.52;9.20;;;;;;;;;;5035122;28;20029;-77
2022/03/19 04:49:02;;;;;;;13.75;9.10;;;;;;;;;;5034780;28;20388;-77
2022/03/19 04:51:33;;;;;;;12.68;8.55;;;;;;;;;;5034991;28;20095;-77
2022/03/19 04:54:00;;;;;;;13.55;8.63;;;;;;;;;;5034721;28;20037;-77
2022/03/19 04:56:27;;;;;;;13.63;7.95;;;;;;;;;;5035061;28;20022;-77
2022/03/19 04:58:55;;;;;;;11.75;7.40;;;;;;;;;;5034436;28;20044;-77
2022/03/19 05:01:21;;;;;;;25.95;15.90;;;;;;;;;;5034629;28;20083;-77
2022/03/19 05:03:47;;;;;;;12.73;7.75;;;;;;;;;;5034930;28;20029;-78
2022/03/19 05:06:14;;;;;;;10.60;6.68;;;;;;;;;;5035014;28;20037;-79
2022/03/19 05:08:40;;;;;;;8.02;6.32;;;;;;;;;;5033722;28;20043;-77
2022/03/19 05:11:17;;;;;;;9.50;6.28;;;;;;;;;;5034395;28;20495;-77
2022/03/19 05:13:44;;;;;;;13.35;8.05;;;;;;;;;;5034513;28;20032;-77
2022/03/19 05:16:13;;;;;;;14.05;9.82;;;;;;;;;;5034674;28;20043;-77
2022/03/19 05:18:39;;;;;;;23.40;11.60;;;;;;;;;;5034611;28;20033;-78
2022/03/19 05:21:06;;;;;;;25.10;14.13;;;;;;;;;;5034360;28;20034;-78
2022/03/19 05:23:32;;;;;;;27.90;15.85;;;;;;;;;;5034927;28;20022;-78
2022/03/19 05:25:58;;;;;;;23.40;12.75;;;;;;;;;;5034216;28;20029;-78
2022/03/19 05:28:25;;;;;;;29.13;15.13;;;;;;;;;;5034309;28;20029;-78
2022/03/19 05:30:52;;;;;;;25.88;15.57;;;;;;;;;;5033217;28;20456;-78
2022/03/19 05:33:18;;;;;;;19.67;12.93;;;;;;;;;;5034932;28;20429;-78
2022/03/19 05:35:45;;;;;;;31.05;17.48;;;;;;;;;;5034566;28;20472;-80
2022/03/19 05:38:12;;;;;;;34.00;19.80;;;;;;;;;;5035029;28;20017;-81
2022/03/19 05:40:38;;;;;;;22.98;16.58;;;;;;;;;;5034661;28;20026;-79
2022/03/19 05:43:04;;;;;;;27.27;16.88;;;;;;;;;;5034271;28;20033;-79
2022/03/19 05:45:30;;;;;;;20.25;12.88;;;;;;;;;;5033275;28;20026;-81
2022/03/19 05:47:57;;;;;;;17.15;11.13;;;;;;;;;;5033016;28;20385;-81
2022/03/19 05:50:23;;;;;;;21.02;14.43;;;;;;;;;;5053996;28;20060;-80
2022/03/19 05:52:49;;;;;;;36.85;20.95;;;;;;;;;;5053773;28;20052;-80
2022/03/19 05:55:15;;;;;;;29.05;18.85;;;;;;;;;;5053780;28;20024;-79
2022/03/19 05:57:41;;;;;;;35.28;19.83;;;;;;;;;;5053775;28;20082;-81
2022/03/19 06:00:08;;;;;;;28.40;17.65;;;;;;;;;;5052545;28;20029;-79
2022/03/19 06:02:41;;;;;;;25.85;17.00;;;;;;;;;;5053780;28;20043;-78
2022/03/19 06:05:08;;;;;;;21.15;13.15;;;;;;;;;;5053687;28;20057;-80
2022/03/19 06:07:34;;;;;;;23.52;15.30;;;;;;;;;;5053512;28;20544;-81
2022/03/19 06:10:00;;;;;;;27.75;18.90;;;;;;;;;;5052959;28;20052;-78
2022/03/19 06:12:26;;;;;;;33.33;20.38;;;;;;;;;;5053489;28;20059;-78
2022/03/19 06:14:54;;;;;;;42.60;23.95;;;;;;;;;;5053503;28;20029;-79
2022/03/19 06:17:20;;;;;;;43.58;26.05;;;;;;;;;;5053886;28;20037;-78
2022/03/19 06:19:47;;;;;;;33.83;20.15;;;;;;;;;;5053415;28;20025;-79
2022/03/19 06:22:13;;;;;;;36.97;23.92;;;;;;;;;;5053382;28;20052;-78
2022/03/19 06:24:39;;;;;;;39.25;24.10;;;;;;;;;;5053525;28;20029;-78
2022/03/19 06:27:05;;;;;;;32.42;18.88;;;;;;;;;;5052840;28;20024;-78
2022/03/19 06:29:31;;;;;;;33.40;20.58;;;;;;;;;;5053039;28;20055;-78
2022/03/19 06:31:58;;;;;;;32.40;20.48;;;;;;;;;;5053128;28;20033;-78
2022/03/19 06:34:24;;;;;;;29.58;17.67;;;;;;;;;;5053132;28;20527;-78
2022/03/19 06:39:38;;;;;;;30.30;17.13;;;;;;;;;;5052110;28;20534;-77
2022/03/19 06:42:05;;;;;;;28.70;18.23;;;;;;;;;;5052927;28;20075;-80
2022/03/19 06:44:31;;;;;;;25.95;15.80;;;;;;;;;;5052790;28;20059;-79
2022/03/19 06:46:57;;;;;;;20.08;14.13;;;;;;;;;;5050714;28;20025;-78
2022/03/19 06:49:24;;;;;;;27.45;18.02;;;;;;;;;;5045952;28;20049;-78
2022/03/19 06:51:50;;;;;;;30.17;18.92;;;;;;;;;;5036665;28;20080;-77
2022/03/19 06:54:16;;;;;;;19.30;13.45;;;;;;;;;;5031827;28;20392;-77
2022/03/19 06:56:42;;;;;;;20.95;14.43;;;;;;;;;;5032591;28;20029;-78
2022/03/19 06:59:08;;;;;;;17.20;11.25;;;;;;;;;;5032848;28;20539;-78
2022/03/19 07:01:37;;;;;;;28.33;16.17;;;;;;;;;;5033149;28;20034;-78
2022/03/19 07:04:04;;;;;;;15.70;10.73;;;;;;;;;;5031369;28;20124;-78
2022/03/19 07:06:30;;;;;;;17.40;10.55;;;;;;;;;;5032739;28;20404;-78
2022/03/19 07:08:56;;;;;;;13.73;9.82;;;;;;;;;;5032926;28;20108;-77
2022/03/19 07:11:23;;;;;;;14.90;9.07;;;;;;;;;;5031286;28;20132;-77
2022/03/19 07:13:49;;;;;;;14.80;10.85;;;;;;;;;;5032943;28;20021;-76
2022/03/19 07:16:15;;;;;;;13.07;7.78;;;;;;;;;;5032279;28;20034;-77
2022/03/19 07:18:42;;;;;;;15.10;10.82;;;;;;;;;;5032341;28;20017;-77
2022/03/19 07:21:09;;;;;;;9.27;6.90;;;;;;;;;;5032203;28;20045;-77
2022/03/19 07:23:35;;;;;;;8.05;4.88;;;;;;;;;;5031227;28;20100;-77
2022/03/19 07:26:01;;;;;;;8.57;6.20;;;;;;;;;;5031873;28;20104;-76
2022/03/19 07:28:28;;;;;;;7.47;5.53;;;;;;;;;;5032409;28;20075;-75
2022/03/19 07:30:55;;;;;;;8.10;6.10;;;;;;;;;;5032006;28;20030;-76
2022/03/19 07:33:22;;;;;;;7.93;5.80;;;;;;;;;;5032257;28;20079;-76
2022/03/19 07:35:49;;;;;;;8.18;5.78;;;;;;;;;;5031838;28;20053;-78
2022/03/19 07:38:15;;;;;;;11.80;7.20;;;;;;;;;;5032278;28;20423;-77
2022/03/19 07:43:26;;;;;;;;;;;;;;;;;;5032893;28;20155;-79
2022/03/19 07:45:52;;;;;;;10.18;6.88;;;;;;;;;;5031762;28;19909;-76
2022/03/19 07:48:19;;;;;;;10.18;6.85;;;;;;;;;;5032065;28;20092;-77
2022/03/19 07:50:45;;;;;;;9.02;6.00;;;;;;;;;;5031983;28;20100;-77
2022/03/19 07:53:11;;;;;;;13.60;8.10;;;;;;;;;;5031696;28;20072;-77
2022/03/19 07:55:37;;;;;;;9.90;7.15;;;;;;;;;;5034266;28;20389;-77
2022/03/19 07:58:04;;;;;;;22.60;12.18;;;;;;;;;;5049592;28;20391;-77
2022/03/19 08:00:30;;;;;;;10.27;6.47;;;;;;;;;;5050711;28;20544;-78
2022/03/19 08:02:56;;;;;;;10.30;7.50;;;;;;;;;;5052285;28;20025;-78
2022/03/19 08:05:22;;;;;;;11.57;7.35;;;;;;;;;;5051820;28;20136;-77
2022/03/19 08:07:48;;;;;;;8.95;5.63;;;;;;;;;;5051097;28;20029;-78
2022/03/19 08:10:15;;;;;;;15.98;8.23;;;;;;;;;;5054358;28;20037;-78
2022/03/19 08:12:43;;;;;;;10.38;6.43;;;;;;;;;;5055614;28;20048;-78
2022/03/19 08:15:10;;;;;;;8.30;5.82;;;;;;;;;;5055027;28;20108;-77
2022/03/19 08:17:41;;;;;;;9.25;6.35;;;;;;;;;;5055611;28;20032;-77
2022/03/19 08:20:07;;;;;;;14.13;9.15;;;;;;;;;;5052562;28;20110;-78
2022/03/19 08:22:34;;;;;;;9.02;6.68;;;;;;;;;;5055395;28;20040;-77
2022/03/19 08:25:01;;;;;;;6.70;5.60;;;;;;;;;;5055507;28;20460;-78
2022/03/19 08:27:27;;;;;;;9.55;5.90;;;;;;;;;;5055172;28;20091;-78
2022/03/19 08:29:54;;;;;;;7.57;5.70;;;;;;;;;;5054550;28;20025;-78
2022/03/19 08:32:23;;;;;;;11.52;6.53;;;;;;;;;;5054711;28;20100;-78
2022/03/19 08:34:50;;;;;;;8.40;6.40;;;;;;;;;;5055111;28;20444;-76
2022/03/19 08:37:16;;;;;;;8.82;6.00;;;;;;;;;;5051431;28;20464;-76
2022/03/19 08:42:27;;;;;;;7.88;5.38;;;;;;;;;;5054490;28;20132;-77
2022/03/19 08:44:56;;;;;;;8.73;6.10;;;;;;;;;;5055134;28;20524;-79
2022/03/19 08:47:22;;;;;;;11.50;6.18;;;;;;;;;;5054725;28;20530;-79
2022/03/19 08:49:48;;;;;;;6.93;5.90;;;;;;;;;;5054651;28;20025;-78
2022/03/19 08:52:14;;;;;;;7.30;5.43;;;;;;;;;;5053729;28;20041;-77
2022/03/19 08:54:40;;;;;;;8.82;5.95;;;;;;;;;;5053925;28;20024;-78
2022/03/19 08:57:06;;;;;;;9.25;6.82;;;;;;;;;;5053519;28;20040;-78
2022/03/19 08:59:32;;;;;;;10.48;6.47;;;;;;;;;;5053666;28;20029;-77
2022/03/19 09:01:59;;;;;;;7.80;5.80;;;;;;;;;;5054887;28;20124;-78
2022/03/19 09:04:25;;;;;;;7.68;5.57;;;;;;;;;;5054528;28;20479;-76
2022/03/19 09:06:51;;;;;;;8.20;5.32;;;;;;;;;;5054955;28;20025;-78
2022/03/19 09:09:19;;;;;;;8.02;5.47;;;;;;;;;;5054424;28;20086;-78
2022/03/19 09:11:46;;;;;;;16.17;9.00;;;;;;;;;;5054932;28;20024;-78
2022/03/19 09:14:12;;;;;;;10.55;6.35;;;;;;;;;;5054740;28;20025;-78
2022/03/19 09:16:40;;;;;;;10.65;6.47;;;;;;;;;;5054357;28;20021;-78
2022/03/19 09:19:06;;;;;;;12.00;9.45;;;;;;;;;;5052167;28;20522;-78
2022/03/19 09:21:32;;;;;;;8.55;6.03;;;;;;;;;;5052399;28;20037;-78
2022/03/19 09:23:59;;;;;;;9.30;7.03;;;;;;;;;;5053485;28;20380;-78
2022/03/19 09:26:25;;;;;;;8.85;6.65;;;;;;;;;;5050623;28;20418;-77
2022/03/19 09:28:52;;;;;;;14.45;8.73;;;;;;;;;;5053239;28;20072;-77
2022/03/19 09:31:18;;;;;;;9.90;6.65;;;;;;;;;;5053743;28;20025;-78
2022/03/19 09:33:48;;;;;;;8.13;6.68;;;;;;;;;;5051171;28;20472;-79
2022/03/19 09:36:15;;;;;;;9.25;6.68;;;;;;;;;;5054189;28;20086;-77
2022/03/19 09:38:41;;;;;;;16.00;9.45;;;;;;;;;;5052920;28;20385;-78
2022/03/19 09:41:08;;;;;;;11.98;6.95;;;;;;;;;;5053560;28;20037;-78
2022/03/19 09:43:35;;;;;;;6.93;5.07;;;;;;;;;;5052795;28;20021;-79
2022/03/19 09:46:03;;;;;;;6.75;4.60;;;;;;;;;;5051217;28;20025;-78
2022/03/19 09:48:29;;;;;;;7.50;4.90;;;;;;;;;;5053498;28;20021;-78
2022/03/19 09:50:56;;;;;;;6.68;5.10;;;;;;;;;;5053453;28;20040;-77
2022/03/19 09:53:23;;;;;;;7.60;4.97;;;;;;;;;;5053617;28;20049;-78
2022/03/19 09:55:49;;;;;;;6.13;4.50;;;;;;;;;;5053151;28;20087;-78
2022/03/19 09:58:16;;;;;;;7.00;4.88;;;;;;;;;;5053486;28;20547;-78
2022/03/19 10:00:43;;;;;;;6.70;5.03;;;;;;;;;;5052466;28;20056;-78
2022/03/19 10:03:10;;;;;;;7.20;4.93;;;;;;;;;;5052150;28;20029;-79
2022/03/19 10:11:07;;;;;;;8.77;6.03;;;;;;;;;;5052030;28;20048;-80
2022/03/19 10:13:36;;;;;;;7.70;6.25;;;;;;;;;;5050189;28;20025;-78
2022/03/19 10:16:02;;;;;;;11.63;8.50;;;;;;;;;;5051742;28;20531;-77
2022/03/19 10:18:30;;;;;;;9.23;6.75;;;;;;;;;;5051299;28;20032;-78
2022/03/19 10:21:00;;;;;;;7.97;5.75;;;;;;;;;;5051273;28;20086;-76
2022/03/19 10:23:30;;;;;;;8.98;5.75;;;;;;;;;;5051260;28;20502;-78
2022/03/19 10:25:56;;;;;;;10.68;6.05;;;;;;;;;;5049586;28;20025;-78
2022/03/19 10:28:28;;;;;;;6.68;5.57;;;;;;;;;;5052507;28;20052;-78
2022/03/19 10:30:55;;;;;;;8.20;5.90;;;;;;;;;;5051435;28;20376;-77
2022/03/19 10:33:23;;;;;;;8.95;6.63;;;;;;;;;;5051920;28;20052;-77
2022/03/19 10:35:49;;;;;;;14.43;9.52;;;;;;;;;;5048938;28;20021;-77
2022/03/19 10:38:23;;;;;;;6.93;5.60;;;;;;;;;;5052543;28;20500;-77
2022/03/19 10:40:51;;;;;;;7.67;6.10;;;;;;;;;;5051837;28;20380;-77
2022/03/19 10:43:22;;;;;;;7.57;5.82;;;;;;;;;;5049252;28;20029;-77
2022/03/19 10:45:49;;;;;;;7.97;6.20;;;;;;;;;;5051619;28;20040;-78
2022/03/19 10:48:35;;;;;;;8.07;5.93;;;;;;;;;;5051821;28;20029;-78
2022/03/19 10:51:02;;;;;;;7.78;5.95;;;;;;;;;;5052850;28;20479;-77
2022/03/19 10:53:28;;;;;;;23.63;16.13;;;;;;;;;;5052297;28;20076;-77
2022/03/19 10:55:54;;;;;;;9.00;6.32;;;;;;;;;;5052656;28;20428;-77
2022/03/19 10:58:21;;;;;;;9.73;5.88;;;;;;;;;;5052485;28;20029;-77
2022/03/19 11:00:50;;;;;;;7.28;5.75;;;;;;;;;;5052307;28;20492;-77
2022/03/19 11:03:21;;;;;;;6.78;5.50;;;;;;;;;;5051717;28;20033;-77
2022/03/19 11:05:49;;;;;;;7.82;5.22;;;;;;;;;;5051949;28;20460;-77
2022/03/19 11:08:18;;;;;;;93.55;48.97;;;;;;;;;;5048993;28;20040;-78
2022/03/19 11:10:45;;;;;;;35.60;22.65;;;;;;;;;;5052268;28;20082;-77
2022/03/19 11:13:12;;;;;;;46.08;29.90;;;;;;;;;;5051518;28;20025;-78
2022/03/19 11:15:40;;;;;;;11.95;8.27;;;;;;;;;;5051861;28;20032;-78
2022/03/19 11:18:07;;;;;;;7.88;6.07;;;;;;;;;;5051590;28;20079;-78
2022/03/19 11:20:33;;;;;;;12.15;8.70;;;;;;;;;;5051413;28;20041;-78
2022/03/19 11:23:01;;;;;;;11.65;9.15;;;;;;;;;;5051358;28;20472;-78
2022/03/19 11:25:27;;;;;;;7.38;6.57;;;;;;;;;;5052156;28;20130;-78
2022/03/19 11:28:01;;;;;;;11.77;9.52;;;;;;;;;;5051746;28;20171;-78
2022/03/19 11:30:28;;;;;;;11.73;8.48;;;;;;;;;;5050914;28;20013;-78
2022/03/19 11:33:00;;;;;;;8.82;6.50;;;;;;;;;;5051292;28;20025;-78
2022/03/19 11:35:27;;;;;;;15.18;9.50;;;;;;;;;;5051243;28;20029;-76
2022/03/19 11:38:01;;;;;;;9.60;6.50;;;;;;;;;;5050122;28;20086;-77
2022/03/19 11:40:29;;;;;;;11.13;7.10;;;;;;;;;;5051650;28;20040;-77
2022/03/19 11:42:55;;;;;;;10.50;6.68;;;;;;;;;;5051480;28;20025;-78
2022/03/19 11:45:22;;;;;;;10.77;7.28;;;;;;;;;;5055566;28;20020;-78
2022/03/19 11:47:48;;;;;;;6.85;5.68;;;;;;;;;;5055474;28;20023;-78
2022/03/19 11:50:18;;;;;;;9.68;5.60;;;;;;;;;;5054996;28;20057;-77
2022/03/19 11:52:46;;;;;;;7.18;5.65;;;;;;;;;;5054865;28;20075;-77
2022/03/19 11:55:13;;;;;;;8.25;5.80;;;;;;;;;;5055208;28;20469;-78
2022/03/19 11:58:03;;;;;;;8.90;5.82;;;;;;;;;;5054376;28;20087;-78
2022/03/19 12:00:34;;;;;;;12.48;9.02;;;;;;;;;;5056394;28;20041;-77
2022/03/19 12:03:03;;;;;;;8.30;5.90;;;;;;;;;;5055289;28;20029;-77
2022/03/19 12:05:30;;;;;;;7.95;5.63;;;;;;;;;;5055469;28;20021;-77
2022/03/19 12:07:59;;;;;;;7.55;5.68;;;;;;;;;;5055178;28;20036;-77
2022/03/19 12:10:26;;;;;;;7.68;5.88;;;;;;;;;;5055127;28;20025;-77
2022/03/19 12:12:53;;;;;;;7.88;5.95;;;;;;;;;;5054854;28;20024;-77
2022/03/19 12:15:38;;;;;;;9.30;5.97;;;;;;;;;;5055539;28;20078;-76
2022/03/19 12:18:23;;;;;;;14.85;10.27;;;;;;;;;;5053102;28;20025;-77
2022/03/19 12:20:50;;;;;;;9.07;6.13;;;;;;;;;;5053980;28;20518;-77
2022/03/19 12:23:16;;;;;;;14.43;6.82;;;;;;;;;;5054860;28;20024;-76
2022/03/19 12:25:44;;;;;;;8.25;5.75;;;;;;;;;;5054695;28;20434;-77
2022/03/19 12:28:15;;;;;;;7.55;5.32;;;;;;;;;;5054438;28;20029;-77
2022/03/19 12:30:41;;;;;;;6.65;5.55;;;;;;;;;;5051163;28;20033;-77
2022/03/19 12:33:08;;;;;;;7.78;5.60;;;;;;;;;;5053893;28;20033;-76
2022/03/19 12:35:42;;;;;;;10.02;5.53;;;;;;;;;;5054100;28;20044;-77
2022/03/19 12:38:08;;;;;;;8.15;5.85;;;;;;;;;;5051904;28;20445;-76
2022/03/19 12:43:21;;;;;;;10.90;8.02;;;;;;;;;;5053008;28;20110;-76
2022/03/19 12:45:50;;;;;;;9.80;6.03;;;;;;;;;;5054276;28;20491;-77
2022/03/19 12:48:17;;;;;;;20.80;15.85;;;;;;;;;;5053261;28;20222;-76
2022/03/19 12:50:49;;;;;;;10.48;6.43;;;;;;;;;;5051677;28;20025;-77
2022/03/19 12:53:16;;;;;;;9.43;6.20;;;;;;;;;;5054818;28;20088;-78
2022/03/19 12:55:42;;;;;;;8.35;7.30;;;;;;;;;;5054168;28;20032;-78
2022/03/19 12:58:08;;;;;;;26.25;13.45;;;;;;;;;;5055072;28;20032;-78
2022/03/19 13:00:34;;;;;;;11.05;8.20;;;;;;;;;;5053953;28;20045;-79
2022/03/19 13:03:00;;;;;;;12.73;10.65;;;;;;;;;;5053894;28;20037;-78
2022/03/19 13:05:26;;;;;;;14.57;10.70;;;;;;;;;;5053663;28;20028;-79
2022/03/19 13:08:11;;;;;;;19.13;12.35;;;;;;;;;;5054517;28;20067;-79
2022/03/19 13:10:37;;;;;;;;;;;;;;;;;;5054345;28;20391;-80
2022/03/19 13:13:04;;;;;;;13.80;8.90;;;;;;;;;;5054064;28;19995;-78
2022/03/19 13:15:30;;;;;;;7.72;5.60;;;;;;;;;;5051382;28;20025;-78
2022/03/19 13:17:56;;;;;;;14.10;8.32;;;;;;;;;;5053673;28;20036;-79
2022/03/19 13:20:23;;;;;;;10.60;8.07;;;;;;;;;;5053474;28;20025;-77
2022/03/19 13:22:49;;;;;;;11.93;8.57;;;;;;;;;;5053377;28;20112;-77
2022/03/19 13:25:15;;;;;;;39.65;24.55;;;;;;;;;;5053443;28;20021;-78
2022/03/19 13:27:41;;;;;;;9.20;6.60;;;;;;;;;;5053706;28;20029;-77
2022/03/19 13:30:11;;;;;;;9.57;6.60;;;;;;;;;;5052227;28;20056;-78
2022/03/19 13:32:38;;;;;;;8.98;7.07;;;;;;;;;;5053584;28;20059;-79
2022/03/19 13:35:04;;;;;;;7.90;6.50;;;;;;;;;;5053462;28;20059;-77
2022/03/19 13:37:38;;;;;;;10.43;7.13;;;;;;;;;;5050457;28;20024;-79
2022/03/19 13:40:06;;;;;;;10.90;7.10;;;;;;;;;;5052675;28;20025;-78
2022/03/19 13:42:38;;;;;;;11.45;7.32;;;;;;;;;;5051845;28;20021;-78
2022/03/19 13:45:11;;;;;;;8.93;6.70;;;;;;;;;;5050829;28;20021;-77
2022/03/19 13:47:50;;;;;;;9.88;6.22;;;;;;;;;;5049823;28;20024;-76
2022/03/19 13:50:17;;;;;;;11.68;7.80;;;;;;;;;;5052760;28;20056;-76
2022/03/19 13:52:49;;;;;;;10.27;8.63;;;;;;;;;;5052987;28;20045;-76
2022/03/19 13:55:34;;;;;;;14.57;10.18;;;;;;;;;;5052757;28;20174;-77
2022/03/19 13:58:01;;;;;;;8.73;7.03;;;;;;;;;;5052293;28;20032;-76
2022/03/19 14:00:29;;;;;;;15.05;10.75;;;;;;;;;;5053247;28;20033;-76
2022/03/19 14:03:02;;;;;;;18.58;13.48;;;;;;;;;;5051925;28;20052;-76
2022/03/19 14:05:31;;;;;;;15.80;11.13;;;;;;;;;;5052187;28;20121;-77
2022/03/19 14:07:58;;;;;;;12.88;9.80;;;;;;;;;;5051716;28;20487;-77
2022/03/19 14:10:32;;;;;;;10.73;7.85;;;;;;;;;;5052260;28;20021;-77
2022/03/19 14:13:18;;;;;;;12.23;8.85;;;;;;;;;;5051164;28;20112;-77
2022/03/19 14:15:48;;;;;;;13.35;7.50;;;;;;;;;;5050712;28;20036;-77
2022/03/19 14:18:21;;;;;;;9.15;6.53;;;;;;;;;;5053759;28;20025;-76
2022/03/19 14:20:47;;;;;;;12.02;7.82;;;;;;;;;;5053034;28;20383;-77
2022/03/19 14:23:13;;;;;;;13.05;9.13;;;;;;;;;;5053216;28;20025;-77
2022/03/19 14:25:39;;;;;;;13.25;8.80;;;;;;;;;;5053363;28;20516;-77
2022/03/19 14:28:12;;;;;;;18.20;12.45;;;;;;;;;;5052659;28;20029;-78
2022/03/19 14:30:39;;;;;;;13.18;8.55;;;;;;;;;;5053091;28;20028;-77
2022/03/19 14:33:06;;;;;;;22.02;13.68;;;;;;;;;;5052864;28;20033;-77
2022/03/19 14:35:50;;;;;;;18.75;11.75;;;;;;;;;;5053027;28;20099;-77
2022/03/19 14:38:18;;;;;;;12.68;8.45;;;;;;;;;;5052949;28;20032;-77
2022/03/19 14:40:45;;;;;;;19.60;12.50;;;;;;;;;;5052417;28;20033;-76
2022/03/19 14:43:15;;;;;;;21.58;13.02;;;;;;;;;;5052983;28;20464;-77
2022/03/19 14:45:41;;;;;;;12.93;9.50;;;;;;;;;;5052358;28;20060;-78
2022/03/19 14:48:07;;;;;;;11.73;9.40;;;;;;;;;;5052817;28;20104;-77
2022/03/19 14:50:33;;;;;;;15.32;10.65;;;;;;;;;;5052310;28;20025;-77